sensor_id;sensor_type;location;lat;lon;timestamp;pressure;altitude;pressure_sealevel;temperature;humidity
75221;BME280;63802;53.232;6.570;2023-03-31T00:01:09;100296.81;;;9.17;89.65
75221;BME280;63802;53.232;6.570;2023-03-31T00:03:35;100304.13;;;9.13;89.70
75221;BME280;63802;53.232;6.570;2023-03-31T00:06:04;100300.63;;;9.12;89.42
75221;BME280;63802;53.232;6.570;2023-03-31T00:08:30;100288.81;;;9.01;89.46
75221;BME280;63802;53.232;6.570;2023-03-31T00:11:01;100304.13;;;9.13;89.78
75221;BME280;63802;53.232;6.570;2023-03-31T00:13:28;100289.84;;;9.19;89.80
75221;BME280;63802;53.232;6.570;2023-03-31T00:15:59;100281.38;;;9.24;90.04
75221;BME280;63802;53.232;6.570;2023-03-31T00:18:26;100281.34;;;9.21;89.79
75221;BME280;63802;53.232;6.570;2023-03-31T00:20:58;100265.31;;;9.16;89.87
75221;BME280;63802;53.232;6.570;2023-03-31T00:23:27;100272.06;;;9.25;89.70
75221;BME280;63802;53.232;6.570;2023-03-31T00:25:56;100247.72;;;9.10;89.68
75221;BME280;63802;53.232;6.570;2023-03-31T00:28:24;100257.28;;;9.26;90.06
75221;BME280;63802;53.232;6.570;2023-03-31T00:30:50;100220.03;;;9.04;89.90
75221;BME280;63802;53.232;6.570;2023-03-31T00:33:15;100242.81;;;9.19;89.90
75221;BME280;63802;53.232;6.570;2023-03-31T00:35:41;100236.94;;;9.17;89.83
75221;BME280;63802;53.232;6.570;2023-03-31T00:38:07;100243.06;;;9.10;89.81
75221;BME280;63802;53.232;6.570;2023-03-31T00:40:43;100229.75;;;9.05;90.12
75221;BME280;63802;53.232;6.570;2023-03-31T00:43:23;100229.34;;;9.03;89.97
75221;BME280;63802;53.232;6.570;2023-03-31T00:45:51;100219.25;;;9.04;90.26
75221;BME280;63802;53.232;6.570;2023-03-31T00:48:17;100208.72;;;9.02;90.27
75221;BME280;63802;53.232;6.570;2023-03-31T00:50:54;100203.16;;;8.95;90.20
75221;BME280;63802;53.232;6.570;2023-03-31T00:53:26;100209.47;;;8.99;90.18
75221;BME280;63802;53.232;6.570;2023-03-31T00:55:56;100207.16;;;9.01;90.44
75221;BME280;63802;53.232;6.570;2023-03-31T00:58:23;100197.41;;;9.00;90.38
75221;BME280;63802;53.232;6.570;2023-03-31T01:00:53;100188.81;;;8.95;90.57
75221;BME280;63802;53.232;6.570;2023-03-31T01:03:19;100191.16;;;8.96;90.37
75221;BME280;63802;53.232;6.570;2023-03-31T01:05:59;100187.94;;;8.91;90.38
75221;BME280;63802;53.232;6.570;2023-03-31T01:08:27;100179.06;;;8.94;90.26
75221;BME280;63802;53.232;6.570;2023-03-31T01:10:57;100178.69;;;8.95;90.31
75221;BME280;63802;53.232;6.570;2023-03-31T01:13:24;100169.28;;;8.89;90.62
75221;BME280;63802;53.232;6.570;2023-03-31T01:15:53;100146.09;;;8.72;90.20
75221;BME280;63802;53.232;6.570;2023-03-31T01:18:19;100161.94;;;8.93;90.61
75221;BME280;63802;53.232;6.570;2023-03-31T01:29:54;100160.28;;;8.85;90.55
75221;BME280;63802;53.232;6.570;2023-03-31T01:35:19;100148.66;;;8.88;90.48
75221;BME280;63802;53.232;6.570;2023-03-31T01:43:55;100133.34;;;8.76;90.63
75221;BME280;63802;53.232;6.570;2023-03-31T01:46:40;100121.22;;;8.70;90.85
75221;BME280;63802;53.232;6.570;2023-03-31T01:57:30;100116.75;;;8.85;90.90
75221;BME280;63802;53.232;6.570;2023-03-31T02:02:29;100109.66;;;8.77;90.78
75221;BME280;63802;53.232;6.570;2023-03-31T02:05:03;100111.25;;;8.82;90.71
75221;BME280;63802;53.232;6.570;2023-03-31T02:07:38;100110.13;;;8.83;90.78
75221;BME280;63802;53.232;6.570;2023-03-31T02:10:08;100112.00;;;8.78;91.00
75221;BME280;63802;53.232;6.570;2023-03-31T02:12:37;100094.06;;;8.74;90.65
75221;BME280;63802;53.232;6.570;2023-03-31T02:15:07;100105.88;;;8.85;91.06
75221;BME280;63802;53.232;6.570;2023-03-31T02:17:34;100089.91;;;8.84;90.51
75221;BME280;63802;53.232;6.570;2023-03-31T02:20:04;100092.22;;;8.82;90.60
75221;BME280;63802;53.232;6.570;2023-03-31T02:22:35;100088.78;;;8.85;90.38
75221;BME280;63802;53.232;6.570;2023-03-31T02:25:02;100087.25;;;8.87;90.30
75221;BME280;63802;53.232;6.570;2023-03-31T02:27:39;100074.00;;;8.86;90.68
75221;BME280;63802;53.232;6.570;2023-03-31T02:30:07;100070.06;;;8.83;90.42
75221;BME280;63802;53.232;6.570;2023-03-31T02:32:37;100076.38;;;8.87;90.29
75221;BME280;63802;53.232;6.570;2023-03-31T02:35:04;100068.16;;;8.84;90.26
75221;BME280;63802;53.232;6.570;2023-03-31T02:37:31;100072.06;;;8.86;90.26
75221;BME280;63802;53.232;6.570;2023-03-31T02:40:00;100047.09;;;8.77;90.27
75221;BME280;63802;53.232;6.570;2023-03-31T02:42:29;100053.75;;;8.83;90.37
75221;BME280;63802;53.232;6.570;2023-03-31T02:45:04;100051.09;;;8.87;90.37
75221;BME280;63802;53.232;6.570;2023-03-31T02:47:30;100038.19;;;8.80;90.46
75221;BME280;63802;53.232;6.570;2023-03-31T02:49:58;100041.81;;;8.91;90.26
75221;BME280;63802;53.232;6.570;2023-03-31T02:55:17;100039.91;;;8.95;90.31
75221;BME280;63802;53.232;6.570;2023-03-31T03:09:06;100000.38;;;9.05;89.90
75221;BME280;63802;53.232;6.570;2023-03-31T03:14:34;99989.88;;;9.03;89.39
75221;BME280;63802;53.232;6.570;2023-03-31T03:17:09;99992.28;;;9.08;89.44
75221;BME280;63802;53.232;6.570;2023-03-31T03:19:40;99979.78;;;9.04;89.56
75221;BME280;63802;53.232;6.570;2023-03-31T03:22:06;99972.34;;;8.97;89.61
75221;BME280;63802;53.232;6.570;2023-03-31T03:24:31;99968.41;;;8.95;89.49
75221;BME280;63802;53.232;6.570;2023-03-31T03:26:59;99955.91;;;8.90;89.66
75221;BME280;63802;53.232;6.570;2023-03-31T03:29:25;99966.88;;;8.97;89.84
75221;BME280;63802;53.232;6.570;2023-03-31T03:31:51;99952.09;;;8.95;89.41
75221;BME280;63802;53.232;6.570;2023-03-31T03:34:17;99947.41;;;8.95;89.66
75221;BME280;63802;53.232;6.570;2023-03-31T03:36:47;99948.19;;;8.92;89.70
75221;BME280;63802;53.232;6.570;2023-03-31T03:39:13;99937.69;;;8.94;89.55
75221;BME280;63802;53.232;6.570;2023-03-31T03:41:38;99935.44;;;9.00;89.68
75221;BME280;63802;53.232;6.570;2023-03-31T03:44:04;99924.88;;;8.95;89.51
75221;BME280;63802;53.232;6.570;2023-03-31T03:46:29;99921.81;;;9.00;89.58
75221;BME280;63802;53.232;6.570;2023-03-31T03:48:55;99916.75;;;8.98;89.87
75221;BME280;63802;53.232;6.570;2023-03-31T03:51:21;99909.31;;;8.95;89.47
75221;BME280;63802;53.232;6.570;2023-03-31T03:53:46;99904.72;;;8.99;89.73
75221;BME280;63802;53.232;6.570;2023-03-31T03:56:12;99876.88;;;8.76;89.84
75221;BME280;63802;53.232;6.570;2023-03-31T03:58:37;99893.84;;;9.03;89.85
75221;BME280;63802;53.232;6.570;2023-03-31T04:01:02;99889.97;;;9.04;90.13
75221;BME280;63802;53.232;6.570;2023-03-31T04:03:28;99889.25;;;9.10;89.90
75221;BME280;63802;53.232;6.570;2023-03-31T04:05:56;99875.25;;;9.08;89.96
75221;BME280;63802;53.232;6.570;2023-03-31T04:08:23;99850.28;;;8.99;89.80
75221;BME280;63802;53.232;6.570;2023-03-31T04:10:49;99882.72;;;9.18;90.09
75221;BME280;63802;53.232;6.570;2023-03-31T04:13:16;99858.59;;;9.13;90.29
75221;BME280;63802;53.232;6.570;2023-03-31T04:15:42;99869.13;;;9.22;90.18
75221;BME280;63802;53.232;6.570;2023-03-31T04:18:08;99861.75;;;9.19;90.11
75221;BME280;63802;53.232;6.570;2023-03-31T04:20:48;99860.56;;;9.20;90.48
75221;BME280;63802;53.232;6.570;2023-03-31T04:23:19;99855.50;;;9.18;90.72
75221;BME280;63802;53.232;6.570;2023-03-31T04:25:48;99840.34;;;9.17;90.82
75221;BME280;63802;53.232;6.570;2023-03-31T04:28:14;99847.31;;;9.15;91.25
75221;BME280;63802;53.232;6.570;2023-03-31T04:30:39;99842.66;;;9.15;91.27
75221;BME280;63802;53.232;6.570;2023-03-31T04:33:05;99834.09;;;9.13;91.47
75221;BME280;63802;53.232;6.570;2023-03-31T04:35:31;99810.28;;;9.03;91.57
75221;BME280;63802;53.232;6.570;2023-03-31T04:38:07;99824.75;;;9.14;91.87
75221;BME280;63802;53.232;6.570;2023-03-31T04:40:33;99813.81;;;9.07;92.18
75221;BME280;63802;53.232;6.570;2023-03-31T04:42:59;99812.72;;;9.15;92.21
75221;BME280;63802;53.232;6.570;2023-03-31T04:45:25;99809.19;;;9.11;92.43
75221;BME280;63802;53.232;6.570;2023-03-31T04:47:51;99803.72;;;9.08;92.54
75221;BME280;63802;53.232;6.570;2023-03-31T04:50:17;99797.47;;;9.07;92.95
75221;BME280;63802;53.232;6.570;2023-03-31T04:52:43;99790.09;;;9.04;92.96
75221;BME280;63802;53.232;6.570;2023-03-31T04:55:09;99792.81;;;9.04;93.29
75221;BME280;63802;53.232;6.570;2023-03-31T04:57:34;99781.88;;;9.01;93.50
75221;BME280;63802;53.232;6.570;2023-03-31T05:00:02;99785.44;;;9.08;93.47
75221;BME280;63802;53.232;6.570;2023-03-31T05:02:31;99773.34;;;9.02;93.72
75221;BME280;63802;53.232;6.570;2023-03-31T05:05:07;99771.78;;;9.01;93.85
75221;BME280;63802;53.232;6.570;2023-03-31T05:07:36;99788.16;;;9.08;94.09
75221;BME280;63802;53.232;6.570;2023-03-31T05:10:02;99777.28;;;9.08;94.07
75221;BME280;63802;53.232;6.570;2023-03-31T05:12:28;99752.28;;;8.92;94.38
75221;BME280;63802;53.232;6.570;2023-03-31T05:14:54;99762.53;;;9.09;94.02
75221;BME280;63802;53.232;6.570;2023-03-31T05:17:19;99765.25;;;9.09;94.15
75221;BME280;63802;53.232;6.570;2023-03-31T05:19:46;99739.88;;;8.98;94.39
75221;BME280;63802;53.232;6.570;2023-03-31T05:22:12;99760.22;;;9.11;94.44
75221;BME280;63802;53.232;6.570;2023-03-31T05:24:37;99745.41;;;9.09;94.61
75221;BME280;63802;53.232;6.570;2023-03-31T05:27:03;99758.63;;;9.10;94.61
75221;BME280;63802;53.232;6.570;2023-03-31T05:29:31;99749.31;;;9.11;94.80
75221;BME280;63802;53.232;6.570;2023-03-31T05:31:57;99740.78;;;9.13;94.91
75221;BME280;63802;53.232;6.570;2023-03-31T05:34:31;99733.34;;;9.10;94.92
75221;BME280;63802;53.232;6.570;2023-03-31T05:36:57;99740.03;;;9.19;95.11
75221;BME280;63802;53.232;6.570;2023-03-31T05:39:26;99735.38;;;9.16;95.08
75221;BME280;63802;53.232;6.570;2023-03-31T05:41:57;99721.75;;;9.16;95.00
75221;BME280;63802;53.232;6.570;2023-03-31T05:44:22;99733.84;;;9.22;94.93
75221;BME280;63802;53.232;6.570;2023-03-31T05:46:48;99720.59;;;9.17;94.99
75221;BME280;63802;53.232;6.570;2023-03-31T05:49:13;99719.06;;;9.23;95.09
75221;BME280;63802;53.232;6.570;2023-03-31T05:51:49;99676.97;;;9.03;95.15
75221;BME280;63802;53.232;6.570;2023-03-31T05:54:19;99664.47;;;8.95;95.02
75221;BME280;63802;53.232;6.570;2023-03-31T05:56:44;99713.28;;;9.28;95.14
75221;BME280;63802;53.232;6.570;2023-03-31T05:59:10;99709.78;;;9.28;95.16
75221;BME280;63802;53.232;6.570;2023-03-31T06:01:36;99686.00;;;9.18;95.13
75221;BME280;63802;53.232;6.570;2023-03-31T06:04:01;99707.44;;;9.30;95.39
75221;BME280;63802;53.232;6.570;2023-03-31T06:06:26;99693.00;;;9.22;95.44
75221;BME280;63802;53.232;6.570;2023-03-31T06:08:52;99687.19;;;9.27;95.52
75221;BME280;63802;53.232;6.570;2023-03-31T06:11:20;99692.66;;;9.27;95.62
75221;BME280;63802;53.232;6.570;2023-03-31T06:13:46;99679.78;;;9.21;95.24
75221;BME280;63802;53.232;6.570;2023-03-31T06:16:16;99679.44;;;9.26;95.35
75221;BME280;63802;53.232;6.570;2023-03-31T06:18:41;99673.94;;;9.22;95.29
75221;BME280;63802;53.232;6.570;2023-03-31T06:21:10;99676.72;;;9.29;95.56
75221;BME280;63802;53.232;6.570;2023-03-31T06:23:37;99672.44;;;9.28;95.59
75221;BME280;63802;53.232;6.570;2023-03-31T06:26:06;99665.44;;;9.27;95.53
75221;BME280;63802;53.232;6.570;2023-03-31T06:28:33;99650.22;;;9.19;95.73
75221;BME280;63802;53.232;6.570;2023-03-31T06:31:07;99652.19;;;9.19;95.50
75221;BME280;63802;53.232;6.570;2023-03-31T06:33:36;99646.75;;;9.22;95.45
75221;BME280;63802;53.232;6.570;2023-03-31T06:36:02;99639.72;;;9.21;95.74
75221;BME280;63802;53.232;6.570;2023-03-31T06:38:30;99647.13;;;9.24;95.50
75221;BME280;63802;53.232;6.570;2023-03-31T06:40:55;99634.31;;;9.25;95.57
75221;BME280;63802;53.232;6.570;2023-03-31T06:43:20;99642.09;;;9.26;95.57
75221;BME280;63802;53.232;6.570;2023-03-31T06:45:46;99632.75;;;9.27;95.60
75221;BME280;63802;53.232;6.570;2023-03-31T06:48:12;99634.34;;;9.28;95.65
75221;BME280;63802;53.232;6.570;2023-03-31T06:50:38;99633.16;;;9.29;95.73
75221;BME280;63802;53.232;6.570;2023-03-31T06:53:05;99625.00;;;9.29;95.64
75221;BME280;63802;53.232;6.570;2023-03-31T06:55:31;99616.81;;;9.29;96.04
75221;BME280;63802;53.232;6.570;2023-03-31T06:57:58;99605.13;;;9.22;95.89
75221;BME280;63802;53.232;6.570;2023-03-31T07:00:23;99605.53;;;9.24;95.99
75221;BME280;63802;53.232;6.570;2023-03-31T07:02:50;99605.53;;;9.24;96.02
75221;BME280;63802;53.232;6.570;2023-03-31T07:05:15;99587.66;;;9.23;96.22
75221;BME280;63802;53.232;6.570;2023-03-31T07:07:48;99594.63;;;9.24;95.63
75221;BME280;63802;53.232;6.570;2023-03-31T07:10:14;99574.38;;;9.14;96.10
75221;BME280;63802;53.232;6.570;2023-03-31T07:12:39;99587.66;;;9.23;95.89
75221;BME280;63802;53.232;6.570;2023-03-31T07:15:05;99589.97;;;9.21;95.93
75221;BME280;63802;53.232;6.570;2023-03-31T07:17:34;99572.06;;;9.13;95.89
75221;BME280;63802;53.232;6.570;2023-03-31T07:20:02;99587.66;;;9.23;96.10
75221;BME280;63802;53.232;6.570;2023-03-31T07:22:31;99591.16;;;9.23;96.15
75221;BME280;63802;53.232;6.570;2023-03-31T07:24:57;99569.34;;;9.16;96.01
75221;BME280;63802;53.232;6.570;2023-03-31T07:27:22;99574.44;;;9.25;95.96
75221;BME280;63802;53.232;6.570;2023-03-31T07:29:48;99542.50;;;9.15;96.05
75221;BME280;63802;53.232;6.570;2023-03-31T07:32:22;99551.06;;;9.17;96.42
75221;BME280;63802;53.232;6.570;2023-03-31T07:34:48;99563.56;;;9.32;96.58
75221;BME280;63802;53.232;6.570;2023-03-31T07:37:13;99562.00;;;9.34;96.16
75221;BME280;63802;53.232;6.570;2023-03-31T07:39:38;99567.06;;;9.32;96.36
75221;BME280;63802;53.232;6.570;2023-03-31T07:42:04;99566.69;;;9.37;96.35
75221;BME280;63802;53.232;6.570;2023-03-31T07:44:35;99556.97;;;9.40;96.15
75221;BME280;63802;53.232;6.570;2023-03-31T07:47:01;99555.00;;;9.33;96.33
75221;BME280;63802;53.232;6.570;2023-03-31T07:49:32;99551.94;;;9.42;96.45
75221;BME280;63802;53.232;6.570;2023-03-31T07:51:59;99521.16;;;9.20;96.20
75221;BME280;63802;53.232;6.570;2023-03-31T07:54:25;99537.09;;;9.25;96.51
75221;BME280;63802;53.232;6.570;2023-03-31T07:56:51;99533.25;;;9.40;96.37
75221;BME280;63802;53.232;6.570;2023-03-31T07:59:17;99527.03;;;9.40;96.30
75221;BME280;63802;53.232;6.570;2023-03-31T08:01:43;99534.81;;;9.49;96.36
75221;BME280;63802;53.232;6.570;2023-03-31T08:04:10;99534.81;;;9.49;96.53
75221;BME280;63802;53.232;6.570;2023-03-31T08:06:36;99510.69;;;9.36;96.49
75221;BME280;63802;53.232;6.570;2023-03-31T08:09:03;99525.09;;;9.40;96.55
75221;BME280;63802;53.232;6.570;2023-03-31T08:11:29;99504.84;;;9.34;96.47
75221;BME280;63802;53.232;6.570;2023-03-31T08:13:55;99505.63;;;9.31;96.44
75221;BME280;63802;53.232;6.570;2023-03-31T08:16:21;99523.16;;;9.44;96.40
75221;BME280;63802;53.232;6.570;2023-03-31T08:18:56;99493.16;;;9.27;96.48
75221;BME280;63802;53.232;6.570;2023-03-31T08:21:27;99485.00;;;9.23;96.71
75221;BME280;63802;53.232;6.570;2023-03-31T08:23:56;99500.56;;;9.33;96.42
75221;BME280;63802;53.232;6.570;2023-03-31T08:26:22;99446.09;;;9.12;96.45
75221;BME280;63802;53.232;6.570;2023-03-31T08:28:51;99494.75;;;9.45;96.58
75221;BME280;63802;53.232;6.570;2023-03-31T08:31:19;99483.06;;;9.34;96.60
75221;BME280;63802;53.232;6.570;2023-03-31T08:33:45;99465.53;;;9.18;96.51
75221;BME280;63802;53.232;6.570;2023-03-31T08:36:12;99457.00;;;9.19;96.61
75221;BME280;63802;53.232;6.570;2023-03-31T08:38:39;99490.84;;;9.39;96.63
75221;BME280;63802;53.232;6.570;2023-03-31T08:41:35;99495.16;;;9.40;96.46
75221;BME280;63802;53.232;6.570;2023-03-31T08:44:33;99486.97;;;9.40;96.46
75221;BME280;63802;53.232;6.570;2023-03-31T08:47:04;99481.13;;;9.38;96.37
75221;BME280;63802;53.232;6.570;2023-03-31T08:49:41;99474.91;;;9.34;96.59
75221;BME280;63802;53.232;6.570;2023-03-31T08:52:18;99435.63;;;9.25;96.47
75221;BME280;63802;53.232;6.570;2023-03-31T08:54:47;99453.50;;;9.36;96.60
75221;BME280;63802;53.232;6.570;2023-03-31T08:57:43;99477.25;;;9.54;96.55
75221;BME280;63802;53.232;6.570;2023-03-31T09:00:49;99471.44;;;9.59;96.58
75221;BME280;63802;53.232;6.570;2023-03-31T09:06:26;99442.25;;;9.45;96.69
75221;BME280;63802;53.232;6.570;2023-03-31T09:08:59;99468.31;;;9.64;96.63
75221;BME280;63802;53.232;6.570;2023-03-31T09:11:49;99446.16;;;9.55;96.79
75221;BME280;63802;53.232;6.570;2023-03-31T09:20:29;99389.38;;;9.28;96.52
75221;BME280;63802;53.232;6.570;2023-03-31T09:25:42;99419.69;;;9.59;96.39
75221;BME280;63802;53.232;6.570;2023-03-31T09:28:50;99404.91;;;9.53;96.50
75221;BME280;63802;53.232;6.570;2023-03-31T09:31:19;99420.09;;;9.64;96.61
75221;BME280;63802;53.232;6.570;2023-03-31T09:33:58;99404.91;;;9.60;96.22
75221;BME280;63802;53.232;6.570;2023-03-31T09:36:25;99453.16;;;9.91;96.48
75221;BME280;63802;53.232;6.570;2023-03-31T09:38:51;99439.09;;;9.89;96.50
75221;BME280;63802;53.232;6.570;2023-03-31T09:41:18;99448.47;;;9.95;96.27
75221;BME280;63802;53.232;6.570;2023-03-31T09:43:47;99415.00;;;9.77;96.19
75221;BME280;63802;53.232;6.570;2023-03-31T09:46:34;99417.31;;;9.89;95.84
75221;BME280;63802;53.232;6.570;2023-03-31T09:49:22;99424.31;;;9.93;95.96
75221;BME280;63802;53.232;6.570;2023-03-31T09:52:08;99407.97;;;9.86;96.16
75221;BME280;63802;53.232;6.570;2023-03-31T09:54:45;99427.81;;;10.01;96.03
75221;BME280;63802;53.232;6.570;2023-03-31T09:59:52;99416.13;;;10.18;96.27
75221;BME280;63802;53.232;6.570;2023-03-31T10:02:32;99426.56;;;10.41;95.94
75221;BME280;63802;53.232;6.570;2023-03-31T10:07:47;99390.72;;;10.42;95.80
75221;BME280;63802;53.232;6.570;2023-03-31T10:10:43;99421.78;;;10.69;95.76
75221;BME280;63802;53.232;6.570;2023-03-31T10:13:25;99380.53;;;10.60;95.48
75221;BME280;63802;53.232;6.570;2023-03-31T10:16:09;99387.97;;;10.53;95.51
75221;BME280;63802;53.232;6.570;2023-03-31T10:18:41;99368.16;;;10.38;95.08
75221;BME280;63802;53.232;6.570;2023-03-31T10:21:22;99395.66;;;10.68;95.31
75221;BME280;63802;53.232;6.570;2023-03-31T10:24:01;99415.41;;;10.94;95.15
75221;BME280;63802;53.232;6.570;2023-03-31T10:26:53;99384.75;;;10.68;94.86
75221;BME280;63802;53.232;6.570;2023-03-31T10:29:40;99373.41;;;10.73;94.94
75221;BME280;63802;53.232;6.570;2023-03-31T10:35:26;99414.22;;;10.98;94.62
75221;BME280;63802;53.232;6.570;2023-03-31T10:38:02;99392.88;;;10.75;94.78
75221;BME280;63802;53.232;6.570;2023-03-31T10:40:49;99361.88;;;10.48;94.69
75221;BME280;63802;53.232;6.570;2023-03-31T10:43:18;99400.41;;;10.57;94.62
75221;BME280;63802;53.232;6.570;2023-03-31T10:45:54;99348.75;;;10.19;94.80
75221;BME280;63802;53.232;6.570;2023-03-31T10:48:25;99410.13;;;10.58;94.79
75221;BME280;63802;53.232;6.570;2023-03-31T10:53:50;99377.75;;;10.64;94.91
75221;BME280;63802;53.232;6.570;2023-03-31T11:04:57;99401.94;;;11.27;94.88
75221;BME280;63802;53.232;6.570;2023-03-31T11:16:40;99399.88;;;11.38;94.03
75221;BME280;63802;53.232;6.570;2023-03-31T11:19:23;99399.75;;;11.56;94.08
75221;BME280;63802;53.232;6.570;2023-03-31T11:22:36;99394.91;;;11.74;94.09
75221;BME280;63802;53.232;6.570;2023-03-31T11:31:36;99398.03;;;12.14;93.00
75221;BME280;63802;53.232;6.570;2023-03-31T11:34:29;99389.84;;;12.14;92.32
75221;BME280;63802;53.232;6.570;2023-03-31T11:40:22;99384.84;;;12.39;91.55
75221;BME280;63802;53.232;6.570;2023-03-31T11:46:15;99346.00;;;13.04;91.18
75221;BME280;63802;53.232;6.570;2023-03-31T11:52:16;99364.34;;;12.81;88.79
75221;BME280;63802;53.232;6.570;2023-03-31T11:54:54;99363.84;;;12.89;88.73
75221;BME280;63802;53.232;6.570;2023-03-31T11:57:45;99363.25;;;13.01;88.52
75221;BME280;63802;53.232;6.570;2023-03-31T12:00:16;99372.50;;;13.14;87.95
75221;BME280;63802;53.232;6.570;2023-03-31T12:06:00;99340.97;;;12.76;86.39
75221;BME280;63802;53.232;6.570;2023-03-31T12:08:40;99338.88;;;12.57;86.14
75221;BME280;63802;53.232;6.570;2023-03-31T12:11:34;99338.13;;;11.92;86.27
75221;BME280;63802;53.232;6.570;2023-03-31T12:16:52;99304.00;;;11.26;87.78
75221;BME280;63802;53.232;6.570;2023-03-31T12:19:54;99365.69;;;11.64;88.86
75221;BME280;63802;53.232;6.570;2023-03-31T12:22:48;99319.47;;;11.43;89.86
75221;BME280;63802;53.232;6.570;2023-03-31T12:25:22;99367.41;;;11.51;89.97
75221;BME280;63802;53.232;6.570;2023-03-31T12:28:09;99294.91;;;10.99;89.89
75221;BME280;63802;53.232;6.570;2023-03-31T12:30:44;99341.13;;;11.20;90.68
75221;BME280;63802;53.232;6.570;2023-03-31T12:33:36;99349.63;;;11.32;91.32
75221;BME280;63802;53.232;6.570;2023-03-31T12:47:42;99347.91;;;11.49;92.63
75221;BME280;63802;53.232;6.570;2023-03-31T12:55:55;99336.84;;;12.00;92.69
75221;BME280;63802;53.232;6.570;2023-03-31T13:04:26;99307.44;;;12.12;90.77
75221;BME280;63802;53.232;6.570;2023-03-31T13:06:57;99275.84;;;12.07;90.42
75221;BME280;63802;53.232;6.570;2023-03-31T13:11:55;99313.97;;;12.48;90.29
75221;BME280;63802;53.232;6.570;2023-03-31T13:14:35;99297.41;;;12.01;89.28
75221;BME280;63802;53.232;6.570;2023-03-31T13:19:50;99284.59;;;12.25;89.77
75221;BME280;63802;53.232;6.570;2023-03-31T13:22:34;99276.72;;;12.31;89.04
75221;BME280;63802;53.232;6.570;2023-03-31T13:25:25;99301.22;;;12.91;89.16
75221;BME280;63802;53.232;6.570;2023-03-31T13:28:07;99294.72;;;13.08;88.69
75221;BME280;63802;53.232;6.570;2023-03-31T13:33:29;99290.03;;;13.05;87.42
75221;BME280;63802;53.232;6.570;2023-03-31T13:36:21;99291.03;;;13.18;87.33
75221;BME280;63802;53.232;6.570;2023-03-31T13:48:36;99262.03;;;12.18;86.47
75221;BME280;63802;53.232;6.570;2023-03-31T13:56:38;99289.81;;;11.82;88.99
75221;BME280;63802;53.232;6.570;2023-03-31T14:08:08;99300.41;;;11.39;91.63
75221;BME280;63802;53.232;6.570;2023-03-31T14:10:37;99306.00;;;11.22;91.96
75221;BME280;63802;53.232;6.570;2023-03-31T14:13:26;99306.38;;;11.24;92.13
75221;BME280;63802;53.232;6.570;2023-03-31T14:15:54;99265.47;;;11.20;92.36
75221;BME280;63802;53.232;6.570;2023-03-31T14:18:28;99262.09;;;11.47;92.64
75221;BME280;63802;53.232;6.570;2023-03-31T14:21:23;99296.81;;;11.83;92.74
75221;BME280;63802;53.232;6.570;2023-03-31T14:24:02;99286.66;;;11.84;92.29
75221;BME280;63802;53.232;6.570;2023-03-31T14:29:38;99284.50;;;11.65;91.04
75221;BME280;63802;53.232;6.570;2023-03-31T14:32:23;99262.84;;;11.47;90.97
75221;BME280;63802;53.232;6.570;2023-03-31T14:37:51;99259.22;;;11.20;90.38
75221;BME280;63802;53.232;6.570;2023-03-31T14:40:17;99270.09;;;11.27;90.12
75221;BME280;63802;53.232;6.570;2023-03-31T14:42:45;99240.69;;;11.38;90.31
75221;BME280;63802;53.232;6.570;2023-03-31T14:48:21;99235.78;;;11.93;89.96
75221;BME280;63802;53.232;6.570;2023-03-31T14:51:08;99264.53;;;12.35;89.79
75221;BME280;63802;53.232;6.570;2023-03-31T14:53:35;99249.28;;;12.38;89.25
75221;BME280;63802;53.232;6.570;2023-03-31T14:56:11;99258.84;;;12.76;88.83
75221;BME280;63802;53.232;6.570;2023-03-31T14:58:42;99244.06;;;12.47;88.02
75221;BME280;63802;53.232;6.570;2023-03-31T15:01:13;99255.44;;;12.42;88.16
75221;BME280;63802;53.232;6.570;2023-03-31T15:03:44;99255.66;;;12.28;88.16
75221;BME280;63802;53.232;6.570;2023-03-31T15:06:11;99246.81;;;12.17;87.71
75221;BME280;63802;53.232;6.570;2023-03-31T15:08:41;99241.44;;;12.09;87.56
75221;BME280;63802;53.232;6.570;2023-03-31T15:11:07;99255.75;;;12.21;88.24
75221;BME280;63802;53.232;6.570;2023-03-31T15:13:36;99218.25;;;11.91;88.03
75221;BME280;63802;53.232;6.570;2023-03-31T15:19:18;99191.19;;;11.70;87.82
75221;BME280;63802;53.232;6.570;2023-03-31T15:21:58;99220.22;;;11.90;87.92
75221;BME280;63802;53.232;6.570;2023-03-31T15:24:30;99245.25;;;11.85;86.60
75221;BME280;63802;53.232;6.570;2023-03-31T15:29:44;99256.28;;;11.78;86.41
75221;BME280;63802;53.232;6.570;2023-03-31T15:32:22;99240.28;;;11.80;86.45
75221;BME280;63802;53.232;6.570;2023-03-31T15:34:50;99216.97;;;11.69;86.40
75221;BME280;63802;53.232;6.570;2023-03-31T15:37:27;99243.38;;;11.82;86.15
75221;BME280;63802;53.232;6.570;2023-03-31T15:39:57;99222.13;;;11.60;85.90
75221;BME280;63802;53.232;6.570;2023-03-31T15:42:25;99233.75;;;11.71;85.99
75221;BME280;63802;53.232;6.570;2023-03-31T15:47:33;99227.63;;;11.56;85.97
75221;BME280;63802;53.232;6.570;2023-03-31T15:50:11;99235.91;;;11.49;85.98
75221;BME280;63802;53.232;6.570;2023-03-31T15:52:38;99238.34;;;11.40;86.44
75221;BME280;63802;53.232;6.570;2023-03-31T15:57:49;99226.31;;;11.34;87.26
75221;BME280;63802;53.232;6.570;2023-03-31T16:02:56;99227.97;;;11.24;87.21
75221;BME280;63802;53.232;6.570;2023-03-31T16:05:38;99220.56;;;11.25;87.44
75221;BME280;63802;53.232;6.570;2023-03-31T16:08:31;99223.31;;;11.25;87.24
75221;BME280;63802;53.232;6.570;2023-03-31T16:11:02;99225.19;;;11.28;87.00
75221;BME280;63802;53.232;6.570;2023-03-31T16:13:31;99228.31;;;11.30;86.96
75221;BME280;63802;53.232;6.570;2023-03-31T16:15:58;99219.34;;;11.29;86.73
75221;BME280;63802;53.232;6.570;2023-03-31T16:18:25;99222.84;;;11.30;86.97
75221;BME280;63802;53.232;6.570;2023-03-31T16:20:55;99228.69;;;11.32;87.33
75221;BME280;63802;53.232;6.570;2023-03-31T16:23:30;99226.31;;;11.34;87.01
75221;BME280;63802;53.232;6.570;2023-03-31T16:25:57;99220.06;;;11.37;86.96
75221;BME280;63802;53.232;6.570;2023-03-31T16:28:26;99230.19;;;11.36;86.81
75221;BME280;63802;53.232;6.570;2023-03-31T16:30:52;99221.63;;;11.34;86.67
75221;BME280;63802;53.232;6.570;2023-03-31T16:33:20;99220.88;;;11.30;86.64
75221;BME280;63802;53.232;6.570;2023-03-31T16:35:52;99226.31;;;11.34;86.45